sensor_id;sensor_type;location;lat;lon;timestamp;P1;durP1;ratioP1;P2;durP2;ratioP2
1224;SDS011;602;48.000;7.840;2023-02-15T00:02:00;4.50;;;2.80;;
1224;SDS011;602;48.000;7.840;2023-02-15T00:04:28;4.70;;;2.90;;
1224;SDS011;602;48.000;7.840;2023-02-15T00:07:13;7.53;;;4.50;;
1224;SDS011;602;48.000;7.840;2023-02-15T00:09:41;4.80;;;3.47;;
1224;SDS011;602;48.000;7.840;2023-02-15T00:12:38;3.73;;;2.93;;
1224;SDS011;602;48.000;7.840;2023-02-15T00:15:26;4.97;;;4.50;;
1224;SDS011;602;48.000;7.840;2023-02-15T00:18:09;7.67;;;3.10;;
1224;SDS011;602;48.000;7.840;2023-02-15T00:20:50;8.73;;;4.27;;
1224;SDS011;602;48.000;7.840;2023-02-15T00:23:28;6.60;;;3.70;;
1224;SDS011;602;48.000;7.840;2023-02-15T00:26:16;9.33;;;3.37;;
1224;SDS011;602;48.000;7.840;2023-02-15T00:28:58;6.50;;;3.10;;
1224;SDS011;602;48.000;7.840;2023-02-15T00:31:45;10.10;;;3.00;;
1224;SDS011;602;48.000;7.840;2023-02-15T00:34:28;3.60;;;2.63;;
1224;SDS011;602;48.000;7.840;2023-02-15T00:37:09;3.23;;;2.93;;
1224;SDS011;602;48.000;7.840;2023-02-15T00:42:42;1.50;;;1.40;;
1224;SDS011;602;48.000;7.840;2023-02-15T00:45:10;2.50;;;2.20;;
1224;SDS011;602;48.000;7.840;2023-02-15T00:47:37;4.90;;;3.10;;
1224;SDS011;602;48.000;7.840;2023-02-15T00:50:05;5.77;;;2.67;;
1224;SDS011;602;48.000;7.840;2023-02-15T00:52:32;10.30;;;5.10;;
1224;SDS011;602;48.000;7.840;2023-02-15T00:54:59;7.73;;;3.43;;
1224;SDS011;602;48.000;7.840;2023-02-15T00:57:31;5.37;;;2.60;;
1224;SDS011;602;48.000;7.840;2023-02-15T00:59:59;6.73;;;2.13;;
1224;SDS011;602;48.000;7.840;2023-02-15T01:02:29;3.97;;;2.50;;
1224;SDS011;602;48.000;7.840;2023-02-15T01:04:56;3.57;;;2.50;;
1224;SDS011;602;48.000;7.840;2023-02-15T01:07:23;3.57;;;3.27;;
1224;SDS011;602;48.000;7.840;2023-02-15T01:09:50;5.23;;;3.63;;
1224;SDS011;602;48.000;7.840;2023-02-15T01:12:17;2.70;;;2.13;;
1224;SDS011;602;48.000;7.840;2023-02-15T01:14:44;2.53;;;2.33;;
1224;SDS011;602;48.000;7.840;2023-02-15T01:17:23;2.90;;;2.27;;
1224;SDS011;602;48.000;7.840;2023-02-15T01:19:51;4.00;;;2.30;;
1224;SDS011;602;48.000;7.840;2023-02-15T01:22:21;5.03;;;2.70;;
1224;SDS011;602;48.000;7.840;2023-02-15T01:24:48;4.80;;;2.07;;
1224;SDS011;602;48.000;7.840;2023-02-15T01:27:15;3.30;;;2.10;;
1224;SDS011;602;48.000;7.840;2023-02-15T01:29:42;7.60;;;3.90;;
1224;SDS011;602;48.000;7.840;2023-02-15T01:32:09;5.20;;;2.97;;
1224;SDS011;602;48.000;7.840;2023-02-15T01:34:38;5.07;;;3.20;;
1224;SDS011;602;48.000;7.840;2023-02-15T01:37:10;7.60;;;5.60;;
1224;SDS011;602;48.000;7.840;2023-02-15T01:39:37;10.27;;;3.27;;
1224;SDS011;602;48.000;7.840;2023-02-15T01:42:04;7.37;;;3.37;;
1224;SDS011;602;48.000;7.840;2023-02-15T01:44:45;4.60;;;2.23;;
1224;SDS011;602;48.000;7.840;2023-02-15T01:47:16;3.67;;;3.20;;
1224;SDS011;602;48.000;7.840;2023-02-15T01:49:48;4.10;;;2.10;;
1224;SDS011;602;48.000;7.840;2023-02-15T01:52:24;7.57;;;3.00;;
1224;SDS011;602;48.000;7.840;2023-02-15T01:54:52;2.83;;;2.63;;
1224;SDS011;602;48.000;7.840;2023-02-15T01:57:20;5.90;;;2.70;;
1224;SDS011;602;48.000;7.840;2023-02-15T01:59:51;4.90;;;2.83;;
1224;SDS011;602;48.000;7.840;2023-02-15T02:02:21;4.80;;;3.80;;
1224;SDS011;602;48.000;7.840;2023-02-15T02:04:51;2.63;;;2.43;;
1224;SDS011;602;48.000;7.840;2023-02-15T02:07:21;14.40;;;3.40;;
1224;SDS011;602;48.000;7.840;2023-02-15T02:09:50;4.00;;;2.60;;
1224;SDS011;602;48.000;7.840;2023-02-15T02:12:17;3.00;;;2.50;;
1224;SDS011;602;48.000;7.840;2023-02-15T02:14:46;3.17;;;2.40;;
1224;SDS011;602;48.000;7.840;2023-02-15T02:17:15;2.57;;;2.40;;
1224;SDS011;602;48.000;7.840;2023-02-15T02:20:00;9.37;;;3.60;;
1224;SDS011;602;48.000;7.840;2023-02-15T02:22:59;1.37;;;1.27;;
1224;SDS011;602;48.000;7.840;2023-02-15T02:26:13;8.43;;;3.33;;
1224;SDS011;602;48.000;7.840;2023-02-15T02:29:13;1.37;;;1.27;;
1224;SDS011;602;48.000;7.840;2023-02-15T02:35:18;3.40;;;2.40;;
1224;SDS011;602;48.000;7.840;2023-02-15T02:37:51;1.93;;;1.63;;
1224;SDS011;602;48.000;7.840;2023-02-15T02:40:30;7.40;;;2.80;;
1224;SDS011;602;48.000;7.840;2023-02-15T02:43:03;3.17;;;2.07;;
1224;SDS011;602;48.000;7.840;2023-02-15T02:45:39;3.67;;;3.27;;
1224;SDS011;602;48.000;7.840;2023-02-15T02:48:12;1.63;;;1.53;;
1224;SDS011;602;48.000;7.840;2023-02-15T02:50:42;1.97;;;1.03;;
1224;SDS011;602;48.000;7.840;2023-02-15T02:53:09;8.63;;;1.73;;
1224;SDS011;602;48.000;7.840;2023-02-15T02:55:38;2.33;;;2.20;;
1224;SDS011;602;48.000;7.840;2023-02-15T02:58:10;5.60;;;2.40;;
1224;SDS011;602;48.000;7.840;2023-02-15T03:00:41;4.10;;;3.50;;
1224;SDS011;602;48.000;7.840;2023-02-15T03:03:14;2.83;;;2.53;;
1224;SDS011;602;48.000;7.840;2023-02-15T03:05:46;1.83;;;1.73;;
1224;SDS011;602;48.000;7.840;2023-02-15T03:08:17;4.53;;;3.13;;
1224;SDS011;602;48.000;7.840;2023-02-15T03:10:48;3.50;;;3.00;;
1224;SDS011;602;48.000;7.840;2023-02-15T03:13:17;3.07;;;2.43;;
1224;SDS011;602;48.000;7.840;2023-02-15T03:15:44;7.03;;;4.73;;
1224;SDS011;602;48.000;7.840;2023-02-15T03:18:31;3.13;;;2.60;;
1224;SDS011;602;48.000;7.840;2023-02-15T03:21:02;4.07;;;2.87;;
1224;SDS011;602;48.000;7.840;2023-02-15T03:23:31;2.50;;;2.10;;
1224;SDS011;602;48.000;7.840;2023-02-15T03:26:00;5.10;;;3.17;;
1224;SDS011;602;48.000;7.840;2023-02-15T03:28:31;10.33;;;3.37;;
1224;SDS011;602;48.000;7.840;2023-02-15T03:31:02;4.00;;;1.70;;
1224;SDS011;602;48.000;7.840;2023-02-15T03:33:34;3.73;;;2.70;;
1224;SDS011;602;48.000;7.840;2023-02-15T03:36:08;15.07;;;3.37;;
1224;SDS011;602;48.000;7.840;2023-02-15T03:38:44;5.60;;;2.20;;
1224;SDS011;602;48.000;7.840;2023-02-15T03:41:19;1.37;;;1.27;;
1224;SDS011;602;48.000;7.840;2023-02-15T03:43:51;1.50;;;1.10;;
1224;SDS011;602;48.000;7.840;2023-02-15T03:46:23;2.47;;;1.53;;
1224;SDS011;602;48.000;7.840;2023-02-15T03:48:56;2.47;;;1.20;;
1224;SDS011;602;48.000;7.840;2023-02-15T03:51:28;2.83;;;2.43;;
1224;SDS011;602;48.000;7.840;2023-02-15T03:54:00;2.70;;;2.50;;
1224;SDS011;602;48.000;7.840;2023-02-15T03:56:29;3.90;;;2.90;;
1224;SDS011;602;48.000;7.840;2023-02-15T03:58:57;4.00;;;2.80;;
1224;SDS011;602;48.000;7.840;2023-02-15T04:01:44;1.30;;;0.90;;
1224;SDS011;602;48.000;7.840;2023-02-15T04:04:32;18.23;;;3.70;;
1224;SDS011;602;48.000;7.840;2023-02-15T04:07:01;5.87;;;2.27;;
1224;SDS011;602;48.000;7.840;2023-02-15T04:09:29;5.17;;;2.87;;
1224;SDS011;602;48.000;7.840;2023-02-15T04:12:14;2.30;;;2.10;;
1224;SDS011;602;48.000;7.840;2023-02-15T04:14:41;2.17;;;1.30;;
1224;SDS011;602;48.000;7.840;2023-02-15T04:17:25;2.43;;;1.60;;
1224;SDS011;602;48.000;7.840;2023-02-15T04:19:53;1.47;;;1.37;;
1224;SDS011;602;48.000;7.840;2023-02-15T04:22:38;4.77;;;2.30;;
1224;SDS011;602;48.000;7.840;2023-02-15T04:25:22;9.70;;;1.80;;
1224;SDS011;602;48.000;7.840;2023-02-15T04:27:50;5.33;;;2.57;;
1224;SDS011;602;48.000;7.840;2023-02-15T04:30:18;2.67;;;1.80;;
1224;SDS011;602;48.000;7.840;2023-02-15T04:32:47;2.13;;;1.03;;
1224;SDS011;602;48.000;7.840;2023-02-15T04:35:15;1.83;;;1.73;;
1224;SDS011;602;48.000;7.840;2023-02-15T04:37:43;2.10;;;1.37;;
1224;SDS011;602;48.000;7.840;2023-02-15T04:40:13;1.47;;;1.33;;
1224;SDS011;602;48.000;7.840;2023-02-15T04:42:41;5.37;;;2.03;;
1224;SDS011;602;48.000;7.840;2023-02-15T04:45:08;4.70;;;2.43;;
1224;SDS011;602;48.000;7.840;2023-02-15T04:47:35;3.07;;;1.50;;
1224;SDS011;602;48.000;7.840;2023-02-15T04:50:02;5.30;;;1.67;;
1224;SDS011;602;48.000;7.840;2023-02-15T04:52:31;1.57;;;1.47;;
1224;SDS011;602;48.000;7.840;2023-02-15T04:54:58;3.67;;;3.37;;
1224;SDS011;602;48.000;7.840;2023-02-15T04:57:25;4.87;;;1.23;;
1224;SDS011;602;48.000;7.840;2023-02-15T04:59:52;1.77;;;1.60;;
1224;SDS011;602;48.000;7.840;2023-02-15T05:02:19;3.80;;;2.03;;
1224;SDS011;602;48.000;7.840;2023-02-15T05:04:46;6.27;;;3.10;;
1224;SDS011;602;48.000;7.840;2023-02-15T05:07:13;1.87;;;1.77;;
1224;SDS011;602;48.000;7.840;2023-02-15T05:09:42;2.73;;;1.67;;
1224;SDS011;602;48.000;7.840;2023-02-15T05:12:10;2.43;;;1.20;;
1224;SDS011;602;48.000;7.840;2023-02-15T05:14:40;2.00;;;1.83;;
1224;SDS011;602;48.000;7.840;2023-02-15T05:17:07;1.00;;;1.00;;
1224;SDS011;602;48.000;7.840;2023-02-15T05:19:34;1.43;;;1.33;;
1224;SDS011;602;48.000;7.840;2023-02-15T05:22:00;2.13;;;1.93;;
1224;SDS011;602;48.000;7.840;2023-02-15T05:24:27;2.77;;;1.17;;
1224;SDS011;602;48.000;7.840;2023-02-15T05:27:13;3.73;;;2.10;;
1224;SDS011;602;48.000;7.840;2023-02-15T05:29:57;0.93;;;0.93;;
1224;SDS011;602;48.000;7.840;2023-02-15T05:32:24;2.70;;;2.20;;
1224;SDS011;602;48.000;7.840;2023-02-15T05:34:51;1.33;;;1.07;;
1224;SDS011;602;48.000;7.840;2023-02-15T05:37:18;2.20;;;2.10;;
1224;SDS011;602;48.000;7.840;2023-02-15T05:39:44;6.10;;;2.60;;
1224;SDS011;602;48.000;7.840;2023-02-15T05:42:11;2.20;;;2.00;;
1224;SDS011;602;48.000;7.840;2023-02-15T05:44:39;3.43;;;1.77;;
1224;SDS011;602;48.000;7.840;2023-02-15T05:47:06;1.80;;;1.70;;
1224;SDS011;602;48.000;7.840;2023-02-15T05:49:33;3.87;;;2.10;;
1224;SDS011;602;48.000;7.840;2023-02-15T05:52:01;1.23;;;1.20;;
1224;SDS011;602;48.000;7.840;2023-02-15T05:54:28;6.43;;;1.67;;
1224;SDS011;602;48.000;7.840;2023-02-15T05:56:55;1.67;;;1.40;;
1224;SDS011;602;48.000;7.840;2023-02-15T05:59:24;3.80;;;2.90;;
1224;SDS011;602;48.000;7.840;2023-02-15T06:01:50;3.70;;;2.60;;
1224;SDS011;602;48.000;7.840;2023-02-15T06:04:17;4.50;;;3.20;;
1224;SDS011;602;48.000;7.840;2023-02-15T06:06:44;2.73;;;1.87;;
1224;SDS011;602;48.000;7.840;2023-02-15T06:09:11;1.80;;;1.13;;
1224;SDS011;602;48.000;7.840;2023-02-15T06:11:38;12.27;;;2.97;;
1224;SDS011;602;48.000;7.840;2023-02-15T06:14:05;2.17;;;1.97;;
1224;SDS011;602;48.000;7.840;2023-02-15T06:16:34;3.17;;;2.20;;
1224;SDS011;602;48.000;7.840;2023-02-15T06:19:01;0.83;;;0.83;;
1224;SDS011;602;48.000;7.840;2023-02-15T06:21:28;2.90;;;2.60;;
1224;SDS011;602;48.000;7.840;2023-02-15T06:23:55;1.63;;;1.53;;
1224;SDS011;602;48.000;7.840;2023-02-15T06:26:22;0.93;;;0.90;;
1224;SDS011;602;48.000;7.840;2023-02-15T06:28:49;2.97;;;2.10;;
1224;SDS011;602;48.000;7.840;2023-02-15T06:31:16;1.70;;;1.60;;
1224;SDS011;602;48.000;7.840;2023-02-15T06:33:44;2.77;;;2.57;;
1224;SDS011;602;48.000;7.840;2023-02-15T06:36:11;1.43;;;1.33;;
1224;SDS011;602;48.000;7.840;2023-02-15T06:38:38;1.77;;;1.23;;
1224;SDS011;602;48.000;7.840;2023-02-15T06:41:05;3.30;;;1.73;;
1224;SDS011;602;48.000;7.840;2023-02-15T06:43:32;5.00;;;2.47;;
1224;SDS011;602;48.000;7.840;2023-02-15T06:45:59;2.53;;;2.33;;
1224;SDS011;602;48.000;7.840;2023-02-15T06:48:26;3.97;;;3.57;;
1224;SDS011;602;48.000;7.840;2023-02-15T06:50:54;4.53;;;2.60;;
1224;SDS011;602;48.000;7.840;2023-02-15T06:53:21;3.20;;;1.70;;
1224;SDS011;602;48.000;7.840;2023-02-15T06:55:48;4.33;;;1.90;;
1224;SDS011;602;48.000;7.840;2023-02-15T06:58:15;3.47;;;3.17;;
1224;SDS011;602;48.000;7.840;2023-02-15T07:00:42;2.17;;;1.73;;
1224;SDS011;602;48.000;7.840;2023-02-15T07:03:09;2.80;;;2.07;;
1224;SDS011;602;48.000;7.840;2023-02-15T07:05:39;7.40;;;1.23;;
1224;SDS011;602;48.000;7.840;2023-02-15T07:08:07;6.73;;;3.27;;
1224;SDS011;602;48.000;7.840;2023-02-15T07:10:34;6.30;;;4.90;;
1224;SDS011;602;48.000;7.840;2023-02-15T07:13:01;2.37;;;0.93;;
1224;SDS011;602;48.000;7.840;2023-02-15T07:15:26;2.47;;;2.07;;
1224;SDS011;602;48.000;7.840;2023-02-15T07:17:54;2.70;;;1.73;;
1224;SDS011;602;48.000;7.840;2023-02-15T07:20:23;2.90;;;2.23;;
1224;SDS011;602;48.000;7.840;2023-02-15T07:22:50;5.60;;;2.77;;
1224;SDS011;602;48.000;7.840;2023-02-15T07:25:18;2.30;;;1.37;;
1224;SDS011;602;48.000;7.840;2023-02-15T07:27:45;5.10;;;2.90;;
1224;SDS011;602;48.000;7.840;2023-02-15T07:30:13;5.60;;;3.63;;
1224;SDS011;602;48.000;7.840;2023-02-15T07:32:42;2.27;;;1.60;;
1224;SDS011;602;48.000;7.840;2023-02-15T07:35:23;1.10;;;1.10;;
1224;SDS011;602;48.000;7.840;2023-02-15T07:37:50;1.83;;;1.20;;
1224;SDS011;602;48.000;7.840;2023-02-15T07:40:19;3.23;;;1.17;;
1224;SDS011;602;48.000;7.840;2023-02-15T07:42:48;3.37;;;2.73;;
1224;SDS011;602;48.000;7.840;2023-02-15T07:45:16;3.87;;;3.30;;
1224;SDS011;602;48.000;7.840;2023-02-15T07:47:43;3.03;;;1.60;;
1224;SDS011;602;48.000;7.840;2023-02-15T07:50:10;11.80;;;2.10;;
1224;SDS011;602;48.000;7.840;2023-02-15T07:52:37;1.80;;;0.90;;
1224;SDS011;602;48.000;7.840;2023-02-15T07:55:04;4.43;;;2.87;;
1224;SDS011;602;48.000;7.840;2023-02-15T07:57:35;2.33;;;2.23;;
1224;SDS011;602;48.000;7.840;2023-02-15T08:00:02;5.63;;;3.17;;
1224;SDS011;602;48.000;7.840;2023-02-15T08:02:29;1.70;;;1.60;;
1224;SDS011;602;48.000;7.840;2023-02-15T08:04:56;2.70;;;1.90;;
1224;SDS011;602;48.000;7.840;2023-02-15T08:07:23;2.90;;;2.70;;
1224;SDS011;602;48.000;7.840;2023-02-15T08:09:49;3.67;;;3.10;;
1224;SDS011;602;48.000;7.840;2023-02-15T08:12:16;7.23;;;2.90;;
1224;SDS011;602;48.000;7.840;2023-02-15T08:14:44;9.83;;;3.73;;
1224;SDS011;602;48.000;7.840;2023-02-15T08:17:11;6.07;;;3.03;;
1224;SDS011;602;48.000;7.840;2023-02-15T08:19:38;2.80;;;2.17;;
1224;SDS011;602;48.000;7.840;2023-02-15T08:22:06;2.07;;;1.97;;
1224;SDS011;602;48.000;7.840;2023-02-15T08:24:35;5.13;;;2.17;;
1224;SDS011;602;48.000;7.840;2023-02-15T08:27:03;2.00;;;1.90;;
1224;SDS011;602;48.000;7.840;2023-02-15T08:29:31;3.33;;;1.50;;
1224;SDS011;602;48.000;7.840;2023-02-15T08:32:02;2.07;;;1.80;;
1224;SDS011;602;48.000;7.840;2023-02-15T08:34:31;4.07;;;2.10;;
1224;SDS011;602;48.000;7.840;2023-02-15T08:37:01;3.23;;;2.80;;
1224;SDS011;602;48.000;7.840;2023-02-15T08:39:29;3.80;;;2.23;;
1224;SDS011;602;48.000;7.840;2023-02-15T08:41:56;2.83;;;1.83;;
1224;SDS011;602;48.000;7.840;2023-02-15T08:44:22;3.50;;;3.00;;
1224;SDS011;602;48.000;7.840;2023-02-15T08:46:50;2.97;;;2.67;;
1224;SDS011;602;48.000;7.840;2023-02-15T08:49:18;2.40;;;2.20;;
1224;SDS011;602;48.000;7.840;2023-02-15T08:51:47;5.70;;;3.90;;
1224;SDS011;602;48.000;7.840;2023-02-15T08:54:15;3.30;;;2.83;;
1224;SDS011;602;48.000;7.840;2023-02-15T08:56:43;3.00;;;2.77;;
1224;SDS011;602;48.000;7.840;2023-02-15T08:59:12;5.40;;;2.33;;
1224;SDS011;602;48.000;7.840;2023-02-15T09:01:41;4.40;;;2.23;;
1224;SDS011;602;48.000;7.840;2023-02-15T09:04:08;2.73;;;1.93;;
1224;SDS011;602;48.000;7.840;2023-02-15T09:06:36;3.57;;;2.50;;
1224;SDS011;602;48.000;7.840;2023-02-15T09:09:04;6.67;;;2.30;;
1224;SDS011;602;48.000;7.840;2023-02-15T09:11:33;1.10;;;1.00;;
1224;SDS011;602;48.000;7.840;2023-02-15T09:14:02;4.17;;;2.80;;
1224;SDS011;602;48.000;7.840;2023-02-15T09:16:31;4.07;;;3.07;;
1224;SDS011;602;48.000;7.840;2023-02-15T09:18:59;1.20;;;1.10;;
1224;SDS011;602;48.000;7.840;2023-02-15T09:21:27;4.03;;;2.83;;
1224;SDS011;602;48.000;7.840;2023-02-15T09:23:57;4.33;;;3.00;;
1224;SDS011;602;48.000;7.840;2023-02-15T09:26:25;4.43;;;1.83;;
1224;SDS011;602;48.000;7.840;2023-02-15T09:28:54;2.53;;;1.97;;
1224;SDS011;602;48.000;7.840;2023-02-15T09:31:24;2.53;;;1.60;;
1224;SDS011;602;48.000;7.840;2023-02-15T09:33:52;3.43;;;1.53;;
1224;SDS011;602;48.000;7.840;2023-02-15T09:36:20;3.00;;;2.80;;
1224;SDS011;602;48.000;7.840;2023-02-15T09:38:52;2.67;;;2.33;;
1224;SDS011;602;48.000;7.840;2023-02-15T09:44:27;4.20;;;2.80;;
1224;SDS011;602;48.000;7.840;2023-02-15T09:47:10;2.60;;;2.40;;
1224;SDS011;602;48.000;7.840;2023-02-15T09:49:47;3.10;;;2.77;;
1224;SDS011;602;48.000;7.840;2023-02-15T09:52:34;2.87;;;1.93;;
1224;SDS011;602;48.000;7.840;2023-02-15T09:55:20;13.17;;;3.37;;
1224;SDS011;602;48.000;7.840;2023-02-15T09:57:59;4.07;;;2.40;;
1224;SDS011;602;48.000;7.840;2023-02-15T10:00:37;6.20;;;3.40;;
1224;SDS011;602;48.000;7.840;2023-02-15T10:03:13;6.90;;;2.80;;
1224;SDS011;602;48.000;7.840;2023-02-15T10:06:00;4.63;;;2.60;;
1224;SDS011;602;48.000;7.840;2023-02-15T10:08:52;4.07;;;2.20;;
1224;SDS011;602;48.000;7.840;2023-02-15T10:11:29;3.53;;;2.83;;
1224;SDS011;602;48.000;7.840;2023-02-15T10:14:27;2.33;;;2.13;;
1224;SDS011;602;48.000;7.840;2023-02-15T10:17:14;3.10;;;2.80;;
1224;SDS011;602;48.000;7.840;2023-02-15T10:19:51;4.93;;;3.30;;
1224;SDS011;602;48.000;7.840;2023-02-15T10:22:26;4.20;;;3.80;;
1224;SDS011;602;48.000;7.840;2023-02-15T10:25:07;8.00;;;4.77;;
1224;SDS011;602;48.000;7.840;2023-02-15T10:27:46;4.80;;;4.40;;
1224;SDS011;602;48.000;7.840;2023-02-15T10:30:15;6.10;;;2.93;;
1224;SDS011;602;48.000;7.840;2023-02-15T10:32:53;7.63;;;4.37;;
1224;SDS011;602;48.000;7.840;2023-02-15T10:35:26;6.57;;;3.57;;
1224;SDS011;602;48.000;7.840;2023-02-15T10:40:51;7.00;;;3.80;;
1224;SDS011;602;48.000;7.840;2023-02-15T10:43:37;5.97;;;4.60;;
1224;SDS011;602;48.000;7.840;2023-02-15T10:46:15;5.57;;;4.40;;
1224;SDS011;602;48.000;7.840;2023-02-15T10:51:42;3.97;;;3.53;;
1224;SDS011;602;48.000;7.840;2023-02-15T10:54:21;8.30;;;5.67;;
1224;SDS011;602;48.000;7.840;2023-02-15T10:56:56;26.17;;;5.90;;
1224;SDS011;602;48.000;7.840;2023-02-15T10:59:38;9.40;;;6.43;;
1224;SDS011;602;48.000;7.840;2023-02-15T11:02:27;6.20;;;5.50;;
1224;SDS011;602;48.000;7.840;2023-02-15T11:05:10;7.07;;;4.97;;
1224;SDS011;602;48.000;7.840;2023-02-15T11:07:49;9.00;;;7.00;;
1224;SDS011;602;48.000;7.840;2023-02-15T11:10:22;8.30;;;5.67;;
1224;SDS011;602;48.000;7.840;2023-02-15T11:12:54;7.50;;;6.00;;
1224;SDS011;602;48.000;7.840;2023-02-15T11:15:25;8.37;;;6.07;;
1224;SDS011;602;48.000;7.840;2023-02-15T11:17:58;8.17;;;4.37;;
1224;SDS011;602;48.000;7.840;2023-02-15T11:20:33;6.30;;;4.80;;
1224;SDS011;602;48.000;7.840;2023-02-15T11:23:07;6.03;;;5.40;;
1224;SDS011;602;48.000;7.840;2023-02-15T11:25:41;9.60;;;6.97;;
1224;SDS011;602;48.000;7.840;2023-02-15T11:28:11;7.83;;;5.40;;
1224;SDS011;602;48.000;7.840;2023-02-15T11:30:46;7.37;;;5.97;;
1224;SDS011;602;48.000;7.840;2023-02-15T11:33:19;5.83;;;4.57;;
1224;SDS011;602;48.000;7.840;2023-02-15T11:35:50;9.87;;;6.90;;
1224;SDS011;602;48.000;7.840;2023-02-15T11:38:21;6.20;;;5.30;;
1224;SDS011;602;48.000;7.840;2023-02-15T11:40:51;7.50;;;6.20;;
1224;SDS011;602;48.000;7.840;2023-02-15T11:43:23;6.93;;;5.87;;
1224;SDS011;602;48.000;7.840;2023-02-15T11:45:55;8.70;;;5.57;;
1224;SDS011;602;48.000;7.840;2023-02-15T11:48:24;6.77;;;6.17;;
1224;SDS011;602;48.000;7.840;2023-02-15T11:50:51;8.97;;;6.47;;
1224;SDS011;602;48.000;7.840;2023-02-15T11:53:18;7.67;;;6.87;;
1224;SDS011;602;48.000;7.840;2023-02-15T11:55:49;6.57;;;5.93;;
1224;SDS011;602;48.000;7.840;2023-02-15T11:58:21;5.63;;;5.13;;
1224;SDS011;602;48.000;7.840;2023-02-15T12:00:55;8.20;;;6.10;;
1224;SDS011;602;48.000;7.840;2023-02-15T12:03:29;12.53;;;5.80;;
1224;SDS011;602;48.000;7.840;2023-02-15T12:06:05;11.53;;;7.57;;
1224;SDS011;602;48.000;7.840;2023-02-15T12:08:43;6.87;;;6.10;;
1224;SDS011;602;48.000;7.840;2023-02-15T12:11:17;9.13;;;6.50;;
1224;SDS011;602;48.000;7.840;2023-02-15T12:13:53;8.00;;;5.97;;
1224;SDS011;602;48.000;7.840;2023-02-15T12:16:22;8.20;;;5.80;;
1224;SDS011;602;48.000;7.840;2023-02-15T12:18:51;8.50;;;7.03;;
1224;SDS011;602;48.000;7.840;2023-02-15T12:21:25;6.87;;;5.63;;
1224;SDS011;602;48.000;7.840;2023-02-15T12:23:55;8.70;;;6.10;;
1224;SDS011;602;48.000;7.840;2023-02-15T12:26:26;10.30;;;7.17;;
1224;SDS011;602;48.000;7.840;2023-02-15T12:28:55;8.50;;;7.77;;
1224;SDS011;602;48.000;7.840;2023-02-15T12:31:27;8.70;;;6.90;;
1224;SDS011;602;48.000;7.840;2023-02-15T12:33:59;7.10;;;6.20;;
1224;SDS011;602;48.000;7.840;2023-02-15T12:36:29;7.23;;;6.50;;
1224;SDS011;602;48.000;7.840;2023-02-15T12:39:08;7.33;;;6.70;;
1224;SDS011;602;48.000;7.840;2023-02-15T12:41:46;6.40;;;5.80;;
1224;SDS011;602;48.000;7.840;2023-02-15T12:44:26;8.70;;;7.17;;
1224;SDS011;602;48.000;7.840;2023-02-15T12:46:58;7.70;;;6.90;;
1224;SDS011;602;48.000;7.840;2023-02-15T12:49:28;7.30;;;6.60;;
1224;SDS011;602;48.000;7.840;2023-02-15T12:51:57;11.03;;;8.37;;
1224;SDS011;602;48.000;7.840;2023-02-15T12:54:30;7.83;;;7.00;;
1224;SDS011;602;48.000;7.840;2023-02-15T12:57:02;9.73;;;7.50;;
1224;SDS011;602;48.000;7.840;2023-02-15T12:59:47;8.57;;;7.50;;
1224;SDS011;602;48.000;7.840;2023-02-15T13:02:18;11.13;;;8.73;;
1224;SDS011;602;48.000;7.840;2023-02-15T13:04:49;10.13;;;6.90;;
1224;SDS011;602;48.000;7.840;2023-02-15T13:07:17;8.90;;;6.30;;
1224;SDS011;602;48.000;7.840;2023-02-15T13:09:45;8.07;;;6.30;;
1224;SDS011;602;48.000;7.840;2023-02-15T13:12:16;10.87;;;8.00;;
1224;SDS011;602;48.000;7.840;2023-02-15T13:14:46;7.53;;;6.20;;
1224;SDS011;602;48.000;7.840;2023-02-15T13:17:16;10.03;;;6.77;;
1224;SDS011;602;48.000;7.840;2023-02-15T13:19:46;7.87;;;7.00;;
1224;SDS011;602;48.000;7.840;2023-02-15T13:22:16;7.33;;;6.17;;
1224;SDS011;602;48.000;7.840;2023-02-15T13:24:47;7.60;;;6.80;;
1224;SDS011;602;48.000;7.840;2023-02-15T13:27:16;8.07;;;6.80;;
1224;SDS011;602;48.000;7.840;2023-02-15T13:29:46;8.07;;;5.87;;
1224;SDS011;602;48.000;7.840;2023-02-15T13:32:25;12.90;;;7.80;;
1224;SDS011;602;48.000;7.840;2023-02-15T13:34:54;9.60;;;7.23;;
1224;SDS011;602;48.000;7.840;2023-02-15T13:37:30;7.73;;;6.63;;
1224;SDS011;602;48.000;7.840;2023-02-15T13:40:08;9.87;;;6.80;;
1224;SDS011;602;48.000;7.840;2023-02-15T13:42:40;6.83;;;6.13;;
1224;SDS011;602;48.000;7.840;2023-02-15T13:45:13;9.73;;;6.47;;
1224;SDS011;602;48.000;7.840;2023-02-15T13:47:54;10.33;;;7.00;;
1224;SDS011;602;48.000;7.840;2023-02-15T13:53:21;10.57;;;7.30;;
1224;SDS011;602;48.000;7.840;2023-02-15T13:55:59;9.70;;;6.70;;
1224;SDS011;602;48.000;7.840;2023-02-15T13:58:43;6.60;;;6.00;;
1224;SDS011;602;48.000;7.840;2023-02-15T14:01:36;7.40;;;5.87;;
1224;SDS011;602;48.000;7.840;2023-02-15T14:04:19;7.03;;;6.40;;
1224;SDS011;602;48.000;7.840;2023-02-15T14:07:16;8.83;;;6.07;;
1224;SDS011;602;48.000;7.840;2023-02-15T14:09:58;9.93;;;6.80;;
1224;SDS011;602;48.000;7.840;2023-02-15T14:12:40;8.23;;;6.40;;
1224;SDS011;602;48.000;7.840;2023-02-15T14:15:20;7.47;;;6.73;;
1224;SDS011;602;48.000;7.840;2023-02-15T14:17:58;7.43;;;6.73;;
1224;SDS011;602;48.000;7.840;2023-02-15T14:20:36;9.77;;;6.30;;
1224;SDS011;602;48.000;7.840;2023-02-15T14:23:13;9.77;;;7.07;;
1224;SDS011;602;48.000;7.840;2023-02-15T14:25:57;13.60;;;5.90;;
1224;SDS011;602;48.000;7.840;2023-02-15T14:28:28;9.37;;;7.30;;
1224;SDS011;602;48.000;7.840;2023-02-15T14:30:59;10.03;;;6.17;;
1224;SDS011;602;48.000;7.840;2023-02-15T14:33:32;6.70;;;6.10;;
1224;SDS011;602;48.000;7.840;2023-02-15T14:36:01;7.83;;;6.03;;
1224;SDS011;602;48.000;7.840;2023-02-15T14:38:36;6.50;;;5.60;;
1224;SDS011;602;48.000;7.840;2023-02-15T14:41:13;7.17;;;6.17;;
1224;SDS011;602;48.000;7.840;2023-02-15T14:43:48;7.83;;;5.90;;
1224;SDS011;602;48.000;7.840;2023-02-15T14:46:20;8.33;;;7.17;;
1224;SDS011;602;48.000;7.840;2023-02-15T14:48:53;5.60;;;5.10;;
1224;SDS011;602;48.000;7.840;2023-02-15T14:57:24;8.63;;;6.27;;
1224;SDS011;602;48.000;7.840;2023-02-15T14:59:54;8.50;;;7.27;;
1224;SDS011;602;48.000;7.840;2023-02-15T15:02:24;6.60;;;5.50;;
1224;SDS011;602;48.000;7.840;2023-02-15T15:04:55;6.03;;;5.17;;
1224;SDS011;602;48.000;7.840;2023-02-15T15:07:26;8.23;;;5.93;;
1224;SDS011;602;48.000;7.840;2023-02-15T15:10:02;10.60;;;6.40;;
1224;SDS011;602;48.000;7.840;2023-02-15T15:12:42;8.67;;;6.50;;
1224;SDS011;602;48.000;7.840;2023-02-15T15:15:13;9.33;;;6.63;;
1224;SDS011;602;48.000;7.840;2023-02-15T15:17:59;7.10;;;6.23;;
1224;SDS011;602;48.000;7.840;2023-02-15T15:20:38;9.10;;;7.07;;
1224;SDS011;602;48.000;7.840;2023-02-15T15:23:38;7.27;;;5.67;;
1224;SDS011;602;48.000;7.840;2023-02-15T15:26:20;5.70;;;5.10;;
1224;SDS011;602;48.000;7.840;2023-02-15T15:28:54;10.70;;;4.67;;
1224;SDS011;602;48.000;7.840;2023-02-15T15:31:27;7.07;;;6.17;;
1224;SDS011;602;48.000;7.840;2023-02-15T15:42:50;7.27;;;5.87;;
1224;SDS011;602;48.000;7.840;2023-02-15T15:45:43;6.57;;;5.57;;
1224;SDS011;602;48.000;7.840;2023-02-15T15:48:24;7.80;;;6.00;;
1224;SDS011;602;48.000;7.840;2023-02-15T15:50:56;10.90;;;6.43;;
1224;SDS011;602;48.000;7.840;2023-02-15T15:53:26;10.13;;;6.47;;
1224;SDS011;602;48.000;7.840;2023-02-15T15:55:59;7.67;;;5.47;;
1224;SDS011;602;48.000;7.840;2023-02-15T15:58:29;7.57;;;5.37;;
1224;SDS011;602;48.000;7.840;2023-02-15T16:01:00;8.67;;;6.93;;
1224;SDS011;602;48.000;7.840;2023-02-15T16:03:31;7.03;;;5.13;;
1224;SDS011;602;48.000;7.840;2023-02-15T16:05:59;8.10;;;6.17;;
1224;SDS011;602;48.000;7.840;2023-02-15T16:08:26;7.07;;;5.47;;
1224;SDS011;602;48.000;7.840;2023-02-15T16:10:55;23.13;;;12.80;;
1224;SDS011;602;48.000;7.840;2023-02-15T16:13:24;10.63;;;6.87;;
1224;SDS011;602;48.000;7.840;2023-02-15T16:15:52;7.47;;;6.70;;
1224;SDS011;602;48.000;7.840;2023-02-15T16:18:22;10.17;;;7.33;;
1224;SDS011;602;48.000;7.840;2023-02-15T16:20:51;8.13;;;6.10;;
1224;SDS011;602;48.000;7.840;2023-02-15T16:23:31;5.70;;;4.90;;
1224;SDS011;602;48.000;7.840;2023-02-15T16:26:23;7.93;;;5.63;;
1224;SDS011;602;48.000;7.840;2023-02-15T16:29:12;6.53;;;5.70;;
1224;SDS011;602;48.000;7.840;2023-02-15T16:31:40;6.83;;;5.03;;
1224;SDS011;602;48.000;7.840;2023-02-15T16:34:14;7.40;;;6.73;;
1224;SDS011;602;48.000;7.840;2023-02-15T16:36:43;9.70;;;5.30;;